createdAt,value
2022-08-20T00:02:16.721Z,99.90
2022-08-20T00:04:45.487Z,99.90
2022-08-20T00:07:14.249Z,99.90
2022-08-20T00:09:44.295Z,99.90
2022-08-20T00:12:14.140Z,99.90
2022-08-20T00:14:42.547Z,99.90
2022-08-20T00:17:10.757Z,99.90
2022-08-20T00:19:38.945Z,99.90
2022-08-20T00:22:07.242Z,99.90
2022-08-20T00:24:35.445Z,99.90
2022-08-20T00:27:05.072Z,99.90
2022-08-20T00:29:33.265Z,99.90
2022-08-20T00:32:01.368Z,99.90
2022-08-20T00:34:30.265Z,99.90
2022-08-20T00:36:58.400Z,99.90
2022-08-20T00:39:26.565Z,99.90
2022-08-20T00:41:54.995Z,99.90
2022-08-20T00:44:24.773Z,99.90
2022-08-20T00:46:53.984Z,99.90
2022-08-20T00:49:25.988Z,99.90
2022-08-20T00:51:58.049Z,99.90
2022-08-20T00:54:31.319Z,99.90
2022-08-20T00:57:03.930Z,99.90
2022-08-20T00:59:37.337Z,99.90
2022-08-20T01:02:10.739Z,99.90
2022-08-20T01:04:39.347Z,99.90
2022-08-20T01:07:08.689Z,99.90
2022-08-20T01:09:57.834Z,99.90
2022-08-20T01:12:28.241Z,99.90
2022-08-20T01:14:59.527Z,99.90
2022-08-20T01:17:32.592Z,99.90
2022-08-20T01:20:05.032Z,99.90
2022-08-20T01:22:56.729Z,99.90
2022-08-20T01:25:31.055Z,99.90
2022-08-20T01:28:00.948Z,99.90
2022-08-20T01:30:30.661Z,99.90
2022-08-20T01:32:59.132Z,99.90
2022-08-20T01:35:29.268Z,99.90
2022-08-20T01:37:57.543Z,99.90
2022-08-20T01:40:40.849Z,99.90
2022-08-20T01:43:10.453Z,99.90
2022-08-20T01:45:40.385Z,99.90
2022-08-20T01:48:09.583Z,99.90
2022-08-20T01:50:41.371Z,99.90
2022-08-20T01:53:19.008Z,99.90
2022-08-20T01:55:47.134Z,99.90
2022-08-20T01:58:16.741Z,99.90
2022-08-20T02:00:45.224Z,99.90
2022-08-20T02:03:13.429Z,99.90
2022-08-20T02:05:41.666Z,99.90
2022-08-20T02:08:09.759Z,99.90
2022-08-20T02:10:37.985Z,99.90
2022-08-20T02:13:11.361Z,99.90
2022-08-20T02:15:43.138Z,99.90
2022-08-20T02:18:14.354Z,99.90
2022-08-20T02:20:43.253Z,99.90
2022-08-20T02:23:13.117Z,99.90
2022-08-20T02:25:44.272Z,99.90
2022-08-20T02:28:14.681Z,99.90
2022-08-20T02:30:48.065Z,99.90
2022-08-20T02:33:19.826Z,99.90
2022-08-20T02:35:53.050Z,99.90
2022-08-20T02:38:21.253Z,99.90
2022-08-20T02:40:50.740Z,99.90
2022-08-20T02:43:20.263Z,99.90
2022-08-20T02:45:49.741Z,99.90
2022-08-20T02:48:21.075Z,99.90
2022-08-20T02:50:53.037Z,99.90
2022-08-20T02:53:22.321Z,99.90
2022-08-20T02:55:50.579Z,99.90
2022-08-20T02:58:19.437Z,99.90
2022-08-20T03:00:49.776Z,99.90
2022-08-20T03:03:22.399Z,99.90
2022-08-20T03:05:52.343Z,99.90
2022-08-20T03:08:21.774Z,99.90
2022-08-20T03:10:53.307Z,99.90
2022-08-20T03:13:22.765Z,99.90
2022-08-20T03:15:58.889Z,99.90
2022-08-20T03:18:34.099Z,99.90
2022-08-20T03:21:02.913Z,99.90
2022-08-20T03:23:31.458Z,99.90
2022-08-20T03:26:01.599Z,99.90
2022-08-20T03:28:30.146Z,99.90
2022-08-20T03:30:59.652Z,99.90
2022-08-20T03:33:28.961Z,99.90
2022-08-20T03:35:57.073Z,99.90
2022-08-20T03:38:33.284Z,99.90
2022-08-20T03:41:02.157Z,99.90
2022-08-20T03:43:30.949Z,99.90
2022-08-20T03:46:01.028Z,99.90
2022-08-20T03:48:29.388Z,99.90
2022-08-20T03:51:00.974Z,99.90
2022-08-20T03:53:31.586Z,99.90
2022-08-20T03:56:03.626Z,99.90
2022-08-20T03:58:35.134Z,99.90
2022-08-20T04:01:07.446Z,99.90
2022-08-20T04:03:41.244Z,99.90
2022-08-20T04:06:09.480Z,99.90
2022-08-20T04:08:38.959Z,99.90
2022-08-20T04:11:07.423Z,99.90
2022-08-20T04:13:37.975Z,99.90
2022-08-20T04:16:13.412Z,99.90
2022-08-20T04:18:56.030Z,99.90
2022-08-20T04:21:33.094Z,99.90
2022-08-20T04:24:02.399Z,99.90
2022-08-20T04:26:31.540Z,99.90
2022-08-20T04:29:02.019Z,99.90
2022-08-20T04:31:33.504Z,99.90
2022-08-20T04:34:03.059Z,99.90
2022-08-20T04:36:31.542Z,99.90
2022-08-20T04:38:59.768Z,99.90
2022-08-20T04:41:27.901Z,99.90
2022-08-20T04:43:58.170Z,99.90
2022-08-20T04:46:28.902Z,99.90
2022-08-20T04:48:58.942Z,99.90
2022-08-20T04:51:27.134Z,99.90
2022-08-20T04:53:57.358Z,99.90
2022-08-20T04:56:31.550Z,99.90
2022-08-20T04:59:01.756Z,99.90
2022-08-20T05:01:30.838Z,99.90
2022-08-20T05:04:01.004Z,99.90
2022-08-20T05:06:32.170Z,99.90
2022-08-20T05:09:01.664Z,99.90
2022-08-20T05:11:34.081Z,99.90
2022-08-20T05:14:05.828Z,99.90
2022-08-20T05:16:38.343Z,99.90
2022-08-20T05:19:08.800Z,99.90
2022-08-20T05:21:37.552Z,99.90
2022-08-20T05:24:06.249Z,99.90
2022-08-20T05:26:34.500Z,99.90
2022-08-20T05:29:05.271Z,99.90
2022-08-20T05:31:34.769Z,99.90
2022-08-20T05:34:03.782Z,99.90
2022-08-20T05:36:33.318Z,99.90
2022-08-20T05:39:01.469Z,99.90
2022-08-20T05:41:30.560Z,99.90
2022-08-20T05:44:01.857Z,99.90
2022-08-20T05:46:31.348Z,99.90
2022-08-20T05:49:00.681Z,99.90
2022-08-20T05:51:29.493Z,99.90
2022-08-20T05:53:59.761Z,99.90
2022-08-20T05:56:30.388Z,99.90
2022-08-20T05:59:01.184Z,99.90
2022-08-20T06:01:29.519Z,99.90
2022-08-20T06:04:15.889Z,99.90
2022-08-20T06:06:46.140Z,99.90
2022-08-20T06:09:31.346Z,99.90
2022-08-20T06:12:03.751Z,99.90
2022-08-20T06:14:32.614Z,99.90
2022-08-20T06:17:06.026Z,99.90
2022-08-20T06:19:35.240Z,99.90
2022-08-20T06:22:18.398Z,99.90
2022-08-20T06:24:51.996Z,99.90
2022-08-20T06:27:20.890Z,99.90
2022-08-20T06:29:49.415Z,99.90
2022-08-20T06:32:18.215Z,99.90
2022-08-20T06:34:49.607Z,99.90
2022-08-20T06:37:21.768Z,99.90
2022-08-20T06:39:51.699Z,99.90
2022-08-20T06:42:25.011Z,99.90
2022-08-20T06:44:53.193Z,99.90
2022-08-20T06:47:22.858Z,99.90
2022-08-20T06:49:50.984Z,99.90
2022-08-20T06:52:19.504Z,99.90
2022-08-20T06:54:47.950Z,99.90
2022-08-20T06:57:18.277Z,99.90
2022-08-20T06:59:48.030Z,99.90
2022-08-20T07:02:29.176Z,99.90
2022-08-20T07:05:00.784Z,99.90
2022-08-20T07:07:31.000Z,99.90
2022-08-20T07:10:02.379Z,99.90
2022-08-20T07:12:32.133Z,99.90
2022-08-20T07:15:00.235Z,99.90
2022-08-20T07:17:28.430Z,99.90
2022-08-20T07:19:58.975Z,99.90
2022-08-20T07:22:27.318Z,99.90
2022-08-20T07:24:55.382Z,99.90
2022-08-20T07:27:24.428Z,99.90
2022-08-20T07:30:15.064Z,99.90
2022-08-20T07:32:45.403Z,99.90
2022-08-20T07:35:18.004Z,99.90
2022-08-20T07:37:50.141Z,99.90
2022-08-20T07:40:25.737Z,99.90
2022-08-20T07:42:54.794Z,99.90
2022-08-20T07:45:25.296Z,99.90
2022-08-20T07:47:54.192Z,99.90
2022-08-20T07:50:24.960Z,99.90
2022-08-20T07:52:53.552Z,99.90
2022-08-20T07:55:22.977Z,99.90
2022-08-20T07:57:51.954Z,99.90
2022-08-20T08:00:22.575Z,99.90
2022-08-20T08:02:52.102Z,99.90
2022-08-20T08:05:20.307Z,99.90
2022-08-20T08:07:48.825Z,99.90
2022-08-20T08:10:21.079Z,99.90
2022-08-20T08:12:52.596Z,99.90
2022-08-20T08:15:24.545Z,99.90
2022-08-20T08:17:57.477Z,99.90
2022-08-20T08:20:26.004Z,99.90
2022-08-20T08:22:54.613Z,99.90
2022-08-20T08:25:22.745Z,99.90
2022-08-20T08:27:50.907Z,99.90
2022-08-20T08:30:19.143Z,99.90
2022-08-20T08:33:16.571Z,99.90
2022-08-20T08:35:46.771Z,99.90
2022-08-20T08:38:15.464Z,99.90
2022-08-20T08:40:43.783Z,99.90
2022-08-20T08:43:15.078Z,99.90
2022-08-20T08:46:02.823Z,99.90
2022-08-20T08:48:36.275Z,99.90
2022-08-20T08:51:11.898Z,99.90
2022-08-20T08:53:43.278Z,99.60
2022-08-20T08:56:11.689Z,99.50
2022-08-20T08:58:40.033Z,99.10
2022-08-20T09:01:54.417Z,99.40
2022-08-20T09:04:05.926Z,97.90
2022-08-20T09:06:35.479Z,98.00
2022-08-20T09:09:06.641Z,97.40
2022-08-20T09:11:46.997Z,97.20
2022-08-20T09:14:15.045Z,97.20
2022-08-20T09:16:52.669Z,97.30
2022-08-20T09:19:24.332Z,97.30
2022-08-20T09:21:53.776Z,96.80
2022-08-20T09:24:21.904Z,96.30
2022-08-20T09:26:50.127Z,96.60
2022-08-20T09:29:18.379Z,95.30
2022-08-20T09:31:46.593Z,95.30
2022-08-20T09:34:17.005Z,94.50
2022-08-20T09:36:45.106Z,94.00
2022-08-20T09:39:14.504Z,93.90
2022-08-20T09:41:43.179Z,94.10
2022-08-20T09:44:11.237Z,93.30
2022-08-20T09:46:39.352Z,93.60
2022-08-20T09:49:08.952Z,93.80
2022-08-20T09:51:39.200Z,94.00
2022-08-20T09:54:07.674Z,94.00
2022-08-20T09:56:37.206Z,93.30
2022-08-20T09:59:05.400Z,93.30
2022-08-20T10:01:34.285Z,92.80
2022-08-20T10:04:02.594Z,92.10
2022-08-20T10:06:34.505Z,91.60
2022-08-20T10:09:05.498Z,91.00
2022-08-20T10:11:33.852Z,91.10
2022-08-20T10:14:03.617Z,90.70
2022-08-20T10:16:31.940Z,91.00
2022-08-20T10:19:00.041Z,91.00
2022-08-20T10:21:28.082Z,90.50
2022-08-20T10:23:56.345Z,90.30
2022-08-20T10:26:24.572Z,90.30
2022-08-20T10:28:53.598Z,90.00
2022-08-20T10:31:23.262Z,89.00
2022-08-20T10:33:51.327Z,88.80
2022-08-20T10:36:19.760Z,89.10
2022-08-20T10:38:49.095Z,87.80
2022-08-20T10:41:17.529Z,87.30
2022-08-20T10:43:45.613Z,88.30
2022-08-20T10:46:13.978Z,88.40
2022-08-20T10:48:43.648Z,88.80
2022-08-20T10:51:11.830Z,88.50
2022-08-20T10:53:40.968Z,88.10
2022-08-20T10:56:11.738Z,87.40
2022-08-20T10:58:43.222Z,86.50
2022-08-20T11:01:12.774Z,85.00
2022-08-20T11:04:01.496Z,84.50
2022-08-20T11:06:29.646Z,85.60
2022-08-20T11:08:57.786Z,85.00
2022-08-20T11:11:25.900Z,83.30
2022-08-20T11:13:54.008Z,82.30
2022-08-20T11:16:22.844Z,82.10
2022-08-20T11:18:50.981Z,82.00
2022-08-20T11:21:20.489Z,80.10
2022-08-20T11:23:48.611Z,80.90
2022-08-20T11:26:22.571Z,80.00
2022-08-20T11:28:50.677Z,78.60
2022-08-20T11:31:18.844Z,79.40
2022-08-20T11:33:46.950Z,78.90
2022-08-20T11:36:15.021Z,76.70
2022-08-20T11:38:44.464Z,77.70
2022-08-20T11:41:12.515Z,77.00
2022-08-20T11:43:40.580Z,76.70
2022-08-20T11:46:10.770Z,76.90
2022-08-20T11:48:38.925Z,77.90
2022-08-20T11:51:07.453Z,78.20
2022-08-20T11:53:35.610Z,78.70
2022-08-20T11:56:08.075Z,79.00
2022-08-20T11:58:41.485Z,79.30
2022-08-20T12:01:09.801Z,78.00
2022-08-20T12:03:38.151Z,78.00
2022-08-20T12:06:06.893Z,78.40
2022-08-20T12:08:34.969Z,76.70
2022-08-20T12:11:04.481Z,75.30
2022-08-20T12:13:48.570Z,75.20
2022-08-20T12:16:20.791Z,73.10
2022-08-20T12:18:49.852Z,74.60
2022-08-20T12:21:18.311Z,75.60
2022-08-20T12:23:47.077Z,71.30
2022-08-20T12:26:16.717Z,73.10
2022-08-20T12:28:46.154Z,70.90
2022-08-20T12:31:14.270Z,70.70
2022-08-20T12:33:42.441Z,68.60
2022-08-20T12:36:11.070Z,65.70
2022-08-20T12:38:39.170Z,66.00
2022-08-20T12:41:07.473Z,64.60
2022-08-20T12:43:35.649Z,63.50
2022-08-20T12:46:05.137Z,63.40
2022-08-20T12:48:33.209Z,62.80
2022-08-20T12:51:01.418Z,59.10
2022-08-20T12:53:29.588Z,58.20
2022-08-20T12:55:57.669Z,58.70
2022-08-20T12:58:25.827Z,58.30
2022-08-20T13:00:54.094Z,56.80
2022-08-20T13:03:23.554Z,56.50
2022-08-20T13:05:51.772Z,57.10
2022-08-20T13:08:20.142Z,56.00
2022-08-20T13:10:50.491Z,57.30
2022-08-20T13:13:20.697Z,57.30
2022-08-20T13:15:50.325Z,55.10
2022-08-20T13:18:18.974Z,55.30
2022-08-20T13:20:48.725Z,56.20
2022-08-20T13:23:17.075Z,56.00
2022-08-20T13:25:45.288Z,57.00
2022-08-20T13:28:13.324Z,55.10
2022-08-20T13:30:41.762Z,53.50
2022-08-20T13:33:09.868Z,54.10
2022-08-20T13:35:38.070Z,53.70
2022-08-20T13:38:07.489Z,51.70
2022-08-20T13:40:35.870Z,51.90
2022-08-20T13:43:07.111Z,51.90
2022-08-20T13:45:36.321Z,51.20
2022-08-20T13:48:04.961Z,50.80
2022-08-20T13:50:36.309Z,48.80
2022-08-20T13:53:04.936Z,50.20
2022-08-20T13:55:38.652Z,50.40
2022-08-20T13:58:08.706Z,53.00
2022-08-20T14:00:37.441Z,53.10
2022-08-20T14:03:07.482Z,50.40
2022-08-20T14:05:36.788Z,47.50
2022-08-20T14:08:10.659Z,45.60
2022-08-20T14:10:42.510Z,45.40
2022-08-20T14:13:15.425Z,46.70
2022-08-20T14:15:44.768Z,45.20
2022-08-20T14:18:14.416Z,45.00
2022-08-20T14:20:44.501Z,44.50
2022-08-20T14:23:13.794Z,45.20
2022-08-20T14:25:46.867Z,45.00
2022-08-20T14:28:18.431Z,43.60
2022-08-20T14:30:53.499Z,43.50
2022-08-20T14:33:26.052Z,42.60
2022-08-20T14:35:55.653Z,42.20
2022-08-20T14:38:24.036Z,39.40
2022-08-20T14:40:53.538Z,39.30
2022-08-20T14:43:21.616Z,38.70
2022-08-20T14:45:49.689Z,38.20
2022-08-20T14:48:17.732Z,37.80
2022-08-20T14:50:45.962Z,36.90
2022-08-20T14:53:14.060Z,36.30
2022-08-20T14:55:42.389Z,34.20
2022-08-20T14:58:13.136Z,33.70
2022-08-20T15:00:42.296Z,33.30
2022-08-20T15:03:10.605Z,32.80
2022-08-20T15:05:39.468Z,32.80
2022-08-20T15:08:10.422Z,31.50
2022-08-20T15:10:40.005Z,31.70
2022-08-20T15:13:08.721Z,32.40
2022-08-20T15:15:39.441Z,32.40
2022-08-20T15:18:07.713Z,31.80
2022-08-20T15:20:37.824Z,31.80
2022-08-20T15:23:06.082Z,31.70
2022-08-20T15:25:37.711Z,31.60
2022-08-20T15:28:08.362Z,31.60
2022-08-20T15:30:39.126Z,32.60
2022-08-20T15:33:07.161Z,32.50
2022-08-20T15:35:35.310Z,32.80
2022-08-20T15:38:05.577Z,32.90
2022-08-20T15:40:34.585Z,33.40
2022-08-20T15:43:04.769Z,34.20
2022-08-20T15:45:33.620Z,35.90
2022-08-20T15:48:09.191Z,35.60
2022-08-20T15:51:00.405Z,36.70
2022-08-20T15:53:40.463Z,38.10
2022-08-20T15:56:16.477Z,38.70
2022-08-20T15:58:52.630Z,38.80
2022-08-20T16:01:31.198Z,39.10
2022-08-20T16:04:36.230Z,40.00
2022-08-20T16:07:11.728Z,40.70
2022-08-20T16:09:50.209Z,41.30
2022-08-20T16:12:24.234Z,42.00
2022-08-20T16:14:58.671Z,42.40
2022-08-20T16:17:36.972Z,43.40
2022-08-20T16:20:11.432Z,44.20
2022-08-20T16:22:44.277Z,44.70
2022-08-20T16:25:13.508Z,45.40
2022-08-20T16:27:53.451Z,45.20
2022-08-20T16:30:29.252Z,44.60
2022-08-20T16:33:04.345Z,44.30
2022-08-20T16:35:38.310Z,45.30
2022-08-20T16:38:20.727Z,46.20
2022-08-20T16:40:52.710Z,45.60
2022-08-20T16:43:26.278Z,45.90
2022-08-20T16:46:00.340Z,45.10
2022-08-20T16:48:38.455Z,45.10
2022-08-20T16:51:14.396Z,44.40
2022-08-20T16:53:42.518Z,44.10
2022-08-20T16:56:10.596Z,44.10
2022-08-20T16:58:38.917Z,43.20
2022-08-20T17:01:14.932Z,43.50
2022-08-20T17:03:51.284Z,44.10
2022-08-20T17:06:27.853Z,44.20
2022-08-20T17:08:56.095Z,43.00
2022-08-20T17:11:27.027Z,43.10
2022-08-20T17:14:09.353Z,43.80
2022-08-20T17:16:45.098Z,44.90
2022-08-20T17:19:18.244Z,45.40
2022-08-20T17:21:50.627Z,45.70
2022-08-20T17:24:24.410Z,46.10
2022-08-20T17:26:59.629Z,46.40
2022-08-20T17:29:30.715Z,46.40
2022-08-20T17:32:01.608Z,46.80
2022-08-20T17:34:32.545Z,47.30
2022-08-20T17:37:08.116Z,48.80
2022-08-20T17:39:36.447Z,49.60
2022-08-20T17:42:09.056Z,50.00
2022-08-20T17:44:42.368Z,49.10
2022-08-20T17:47:18.489Z,49.50
2022-08-20T17:49:53.246Z,51.00
2022-08-20T17:52:40.192Z,51.70
2022-08-20T17:55:11.983Z,51.80
2022-08-20T17:57:44.464Z,52.10
2022-08-20T18:00:17.164Z,52.50
2022-08-20T18:02:45.381Z,53.10
2022-08-20T18:05:20.563Z,54.50
2022-08-20T18:08:08.597Z,54.10
2022-08-20T18:10:56.687Z,55.20
2022-08-20T18:13:38.033Z,55.40
2022-08-20T18:16:24.098Z,56.30
2022-08-20T18:18:57.760Z,55.30
2022-08-20T18:21:52.584Z,56.40
2022-08-20T18:24:28.411Z,57.20
2022-08-20T18:27:02.154Z,55.80
2022-08-20T18:29:34.388Z,56.10
2022-08-20T18:32:05.236Z,55.00
2022-08-20T18:34:40.620Z,55.60
2022-08-20T18:37:25.148Z,57.20
2022-08-20T18:40:05.966Z,57.30
2022-08-20T18:42:36.903Z,57.20
2022-08-20T18:45:07.260Z,57.30
2022-08-20T18:47:47.252Z,57.50
2022-08-20T18:50:21.413Z,58.70
2022-08-20T18:52:51.922Z,58.30
2022-08-20T18:55:32.438Z,57.20
2022-08-20T18:58:04.481Z,56.50
2022-08-20T19:00:39.588Z,55.80
2022-08-20T19:03:16.564Z,56.20
2022-08-20T19:06:18.078Z,55.90
2022-08-20T19:08:50.729Z,55.10
2022-08-20T19:11:48.592Z,55.90
2022-08-20T19:14:47.954Z,56.40
2022-08-20T19:17:19.211Z,56.40
2022-08-20T19:19:48.287Z,57.50
2022-08-20T19:22:25.223Z,57.50
2022-08-20T19:24:56.647Z,57.70
2022-08-20T19:27:34.350Z,58.20
2022-08-20T19:30:02.686Z,58.60
2022-08-20T19:32:33.759Z,57.60
2022-08-20T19:35:06.692Z,58.00
2022-08-20T19:37:50.625Z,58.70
2022-08-20T19:40:28.456Z,58.70
2022-08-20T19:43:00.594Z,59.30
2022-08-20T19:45:37.306Z,60.00
2022-08-20T19:48:27.483Z,61.10
2022-08-20T19:51:06.085Z,62.10
2022-08-20T19:53:37.262Z,62.70
2022-08-20T19:56:10.616Z,62.20
2022-08-20T19:58:40.427Z,63.30
2022-08-20T20:01:16.594Z,62.50
2022-08-20T20:03:56.686Z,62.10
2022-08-20T20:06:26.949Z,61.20
2022-08-20T20:08:58.838Z,61.40
2022-08-20T20:11:32.576Z,62.00
2022-08-20T20:14:08.860Z,62.00
2022-08-20T20:16:38.375Z,65.50
2022-08-20T20:19:25.760Z,66.60
2022-08-20T20:22:08.513Z,67.60
2022-08-20T20:24:58.044Z,68.60
2022-08-20T20:27:28.905Z,67.60
2022-08-20T20:30:02.620Z,71.10
2022-08-20T20:32:33.896Z,71.30
2022-08-20T20:35:06.339Z,72.10
2022-08-20T20:37:49.785Z,72.30
2022-08-20T20:40:25.283Z,70.90
2022-08-20T20:43:00.180Z,72.60
2022-08-20T20:45:34.725Z,71.40
2022-08-20T20:48:18.981Z,71.40
2022-08-20T20:50:49.074Z,72.90
2022-08-20T20:53:40.265Z,73.50
2022-08-20T20:56:38.172Z,75.30
2022-08-20T20:59:07.995Z,76.20
2022-08-20T21:01:48.525Z,75.90
2022-08-20T21:04:19.160Z,77.10
2022-08-20T21:06:47.418Z,77.60
2022-08-20T21:09:15.891Z,77.90
2022-08-20T21:11:43.938Z,75.20
2022-08-20T21:14:14.261Z,77.10
2022-08-20T21:16:44.438Z,70.20
2022-08-20T21:19:13.656Z,70.90
2022-08-20T21:21:42.534Z,70.90
2022-08-20T21:24:10.764Z,71.20
2022-08-20T21:26:39.433Z,72.00
2022-08-20T21:29:09.970Z,71.70
2022-08-20T21:31:43.616Z,72.80
2022-08-20T21:34:14.333Z,72.20
2022-08-20T21:36:42.465Z,72.50
2022-08-20T21:39:10.898Z,73.60
2022-08-20T21:41:40.345Z,72.20
2022-08-20T21:44:14.629Z,73.10
2022-08-20T21:46:45.524Z,73.60
2022-08-20T21:49:15.409Z,75.00
2022-08-20T21:51:43.666Z,76.60
2022-08-20T21:54:11.765Z,76.90
2022-08-20T21:56:40.421Z,77.90
2022-08-20T21:59:09.264Z,79.80
2022-08-20T22:01:38.409Z,80.40
2022-08-20T22:04:07.228Z,79.60
2022-08-20T22:06:36.770Z,79.70
2022-08-20T22:09:05.202Z,80.90
2022-08-20T22:11:34.453Z,80.60
2022-08-20T22:14:02.932Z,80.50
2022-08-20T22:16:31.032Z,80.70
2022-08-20T22:18:59.188Z,80.90
2022-08-20T22:21:31.394Z,81.40
2022-08-20T22:24:03.930Z,82.10
2022-08-20T22:26:33.532Z,81.80
2022-08-20T22:29:01.622Z,81.10
2022-08-20T22:31:34.526Z,81.90
2022-08-20T22:34:03.426Z,83.00
2022-08-20T22:36:32.874Z,82.80
2022-08-20T22:39:02.492Z,82.60
2022-08-20T22:41:30.712Z,81.40
2022-08-20T22:43:58.777Z,82.20
2022-08-20T22:46:28.194Z,83.00
2022-08-20T22:48:57.176Z,84.10
2022-08-20T22:51:29.127Z,84.60
2022-08-20T22:53:58.756Z,84.10
2022-08-20T22:56:29.870Z,84.40
2022-08-20T22:58:59.433Z,84.20
2022-08-20T23:01:28.668Z,85.60
2022-08-20T23:03:58.359Z,85.70
2022-08-20T23:06:27.344Z,85.40
2022-08-20T23:08:55.458Z,85.30
2022-08-20T23:11:25.597Z,85.00
2022-08-20T23:13:56.923Z,85.90
2022-08-20T23:16:26.021Z,86.00
2022-08-20T23:18:54.248Z,86.20
2022-08-20T23:21:22.539Z,86.40
2022-08-20T23:23:50.649Z,85.90
2022-08-20T23:26:22.522Z,85.20
2022-08-20T23:28:51.230Z,85.30
2022-08-20T23:31:20.775Z,84.30
2022-08-20T23:33:49.064Z,84.40
2022-08-20T23:36:20.237Z,84.20
2022-08-20T23:38:48.629Z,85.40
2022-08-20T23:41:16.914Z,85.80
2022-08-20T23:43:45.186Z,86.70
2022-08-20T23:46:13.817Z,86.40
2022-08-20T23:48:43.350Z,86.80
2022-08-20T23:51:12.043Z,86.10
2022-08-20T23:53:40.388Z,85.90
2022-08-20T23:56:10.847Z,87.20
2022-08-20T23:58:38.975Z,87.30
